< < Back
Terminal Aerodrome Forecast


Current Version              Previous Versions:   1  2  3  4  5  6  7  8  9  

Terminal Aerodrome Forecast

778
FTUS44 KMOB 211700
TAFMOB
TAF
KMOB 211733Z 2118/2218 09010KT P6SM SKC
     FM221200 09011KT P6SM BKN250=



Latest METAR

722
SAUS80 KWBC 211700 RRA
MTRMOB
METAR KMOB 211656Z 09010KT 10SM CLR 19/07 A3034 RMK AO2 SLP274 T01890072
$


USA.gov is the U.S. government's official web portal to all federal, state and local government web resources and services.